sensor_id;sensor_type;location;lat;lon;timestamp;temperature;humidity
1411;DHT22;700;51.906;8.404;2023-04-19T00:03:31;14.40;99.90
1411;DHT22;700;51.906;8.404;2023-04-19T00:08:31;14.40;99.90
1411;DHT22;700;51.906;8.404;2023-04-19T00:13:32;14.50;99.90
1411;DHT22;700;51.906;8.404;2023-04-19T00:18:33;14.60;99.90
1411;DHT22;700;51.906;8.404;2023-04-19T00:23:34;14.50;99.90
1411;DHT22;700;51.906;8.404;2023-04-19T00:28:37;14.30;99.90
1411;DHT22;700;51.906;8.404;2023-04-19T00:33:37;14.30;99.90
1411;DHT22;700;51.906;8.404;2023-04-19T00:38:38;14.20;99.90
1411;DHT22;700;51.906;8.404;2023-04-19T00:43:40;14.30;99.90
1411;DHT22;700;51.906;8.404;2023-04-19T00:48:43;14.00;99.90
1411;DHT22;700;51.906;8.404;2023-04-19T00:53:44;14.10;99.90
1411;DHT22;700;51.906;8.404;2023-04-19T00:58:45;14.10;99.90
1411;DHT22;700;51.906;8.404;2023-04-19T01:03:47;14.10;99.90
1411;DHT22;700;51.906;8.404;2023-04-19T01:08:48;14.00;99.90
1411;DHT22;700;51.906;8.404;2023-04-19T01:13:48;14.10;99.90
1411;DHT22;700;51.906;8.404;2023-04-19T01:18:52;13.60;99.90
1411;DHT22;700;51.906;8.404;2023-04-19T01:23:53;13.60;99.90
1411;DHT22;700;51.906;8.404;2023-04-19T01:28:53;13.60;99.90
1411;DHT22;700;51.906;8.404;2023-04-19T01:33:54;13.70;99.90
1411;DHT22;700;51.906;8.404;2023-04-19T01:39:00;13.70;99.90
1411;DHT22;700;51.906;8.404;2023-04-19T01:44:00;13.60;99.90
1411;DHT22;700;51.906;8.404;2023-04-19T01:49:06;13.60;99.90
1411;DHT22;700;51.906;8.404;2023-04-19T01:54:07;13.60;99.90
1411;DHT22;700;51.906;8.404;2023-04-19T01:59:10;13.60;99.90
1411;DHT22;700;51.906;8.404;2023-04-19T02:04:13;13.50;99.90
1411;DHT22;700;51.906;8.404;2023-04-19T02:09:15;13.50;99.90
1411;DHT22;700;51.906;8.404;2023-04-19T02:14:16;13.50;99.90
1411;DHT22;700;51.906;8.404;2023-04-19T02:19:21;13.60;99.90
1411;DHT22;700;51.906;8.404;2023-04-19T02:24:23;13.70;99.90
1411;DHT22;700;51.906;8.404;2023-04-19T02:29:26;13.70;99.90
1411;DHT22;700;51.906;8.404;2023-04-19T02:34:27;13.40;99.90
1411;DHT22;700;51.906;8.404;2023-04-19T02:39:30;13.50;99.90
1411;DHT22;700;51.906;8.404;2023-04-19T02:44:30;13.50;99.90
1411;DHT22;700;51.906;8.404;2023-04-19T02:49:31;13.20;99.90
1411;DHT22;700;51.906;8.404;2023-04-19T02:54:35;13.40;99.90
1411;DHT22;700;51.906;8.404;2023-04-19T02:59:35;13.30;99.90
1411;DHT22;700;51.906;8.404;2023-04-19T03:04:36;13.10;99.90
1411;DHT22;700;51.906;8.404;2023-04-19T03:09:39;13.40;99.90
1411;DHT22;700;51.906;8.404;2023-04-19T03:14:42;13.30;99.80
1411;DHT22;700;51.906;8.404;2023-04-19T03:19:43;13.30;99.90
1411;DHT22;700;51.906;8.404;2023-04-19T03:24:44;13.30;99.90
1411;DHT22;700;51.906;8.404;2023-04-19T03:29:47;13.30;99.90
1411;DHT22;700;51.906;8.404;2023-04-19T03:34:47;13.20;99.90
1411;DHT22;700;51.906;8.404;2023-04-19T03:39:48;13.20;99.80
1411;DHT22;700;51.906;8.404;2023-04-19T03:44:49;13.10;98.70
1411;DHT22;700;51.906;8.404;2023-04-19T03:49:49;12.90;97.10
1411;DHT22;700;51.906;8.404;2023-04-19T03:54:54;12.60;96.20
1411;DHT22;700;51.906;8.404;2023-04-19T03:59:57;12.60;95.80
1411;DHT22;700;51.906;8.404;2023-04-19T04:05:03;12.60;94.40
1411;DHT22;700;51.906;8.404;2023-04-19T04:10:07;12.20;94.20
1411;DHT22;700;51.906;8.404;2023-04-19T04:15:08;12.10;94.00
1411;DHT22;700;51.906;8.404;2023-04-19T04:20:11;11.80;93.60
1411;DHT22;700;51.906;8.404;2023-04-19T04:25:16;11.50;94.30
1411;DHT22;700;51.906;8.404;2023-04-19T04:30:16;11.60;94.60
1411;DHT22;700;51.906;8.404;2023-04-19T04:35:19;11.50;94.00
1411;DHT22;700;51.906;8.404;2023-04-19T04:40:23;11.40;94.20
1411;DHT22;700;51.906;8.404;2023-04-19T04:45:24;11.40;95.20
1411;DHT22;700;51.906;8.404;2023-04-19T04:50:24;11.40;95.00
1411;DHT22;700;51.906;8.404;2023-04-19T04:55:27;11.30;94.80
1411;DHT22;700;51.906;8.404;2023-04-19T05:00:28;11.20;94.30
1411;DHT22;700;51.906;8.404;2023-04-19T05:05:29;11.00;94.30
1411;DHT22;700;51.906;8.404;2023-04-19T05:10:29;10.80;94.70
1411;DHT22;700;51.906;8.404;2023-04-19T05:15:30;10.90;95.10
1411;DHT22;700;51.906;8.404;2023-04-19T05:20:30;11.00;95.70
1411;DHT22;700;51.906;8.404;2023-04-19T05:25:33;11.10;95.40
1411;DHT22;700;51.906;8.404;2023-04-19T05:30:33;10.90;94.50
1411;DHT22;700;51.906;8.404;2023-04-19T05:35:34;11.00;94.60
1411;DHT22;700;51.906;8.404;2023-04-19T05:40:37;10.70;94.20
1411;DHT22;700;51.906;8.404;2023-04-19T05:45:39;10.70;95.50
1411;DHT22;700;51.906;8.404;2023-04-19T05:50:40;10.30;95.40
1411;DHT22;700;51.906;8.404;2023-04-19T05:55:45;10.80;96.40
1411;DHT22;700;51.906;8.404;2023-04-19T06:00:47;10.80;95.50
1411;DHT22;700;51.906;8.404;2023-04-19T06:05:53;10.80;95.10
1411;DHT22;700;51.906;8.404;2023-04-19T06:10:53;10.80;95.80
1411;DHT22;700;51.906;8.404;2023-04-19T06:15:55;11.00;95.70
1411;DHT22;700;51.906;8.404;2023-04-19T06:20:58;11.30;96.10
1411;DHT22;700;51.906;8.404;2023-04-19T06:25:59;11.60;96.00
1411;DHT22;700;51.906;8.404;2023-04-19T06:31:02;11.30;94.20
1411;DHT22;700;51.906;8.404;2023-04-19T06:36:05;11.70;96.30
1411;DHT22;700;51.906;8.404;2023-04-19T06:41:06;12.00;94.90
1411;DHT22;700;51.906;8.404;2023-04-19T06:46:09;11.90;93.70
1411;DHT22;700;51.906;8.404;2023-04-19T06:51:10;12.40;94.40
1411;DHT22;700;51.906;8.404;2023-04-19T06:56:11;12.40;93.10
1411;DHT22;700;51.906;8.404;2023-04-19T07:01:12;12.60;93.10
1411;DHT22;700;51.906;8.404;2023-04-19T07:06:13;12.50;93.10
1411;DHT22;700;51.906;8.404;2023-04-19T07:11:14;12.50;93.70
1411;DHT22;700;51.906;8.404;2023-04-19T07:16:14;12.10;93.70
1411;DHT22;700;51.906;8.404;2023-04-19T07:21:15;12.60;94.60
1411;DHT22;700;51.906;8.404;2023-04-19T07:26:15;13.00;94.70
1411;DHT22;700;51.906;8.404;2023-04-19T07:31:17;12.90;92.90
1411;DHT22;700;51.906;8.404;2023-04-19T07:36:20;13.40;92.80
1411;DHT22;700;51.906;8.404;2023-04-19T07:41:23;13.30;90.70
1411;DHT22;700;51.906;8.404;2023-04-19T07:46:26;13.60;91.70
1411;DHT22;700;51.906;8.404;2023-04-19T07:51:27;13.70;90.80
1411;DHT22;700;51.906;8.404;2023-04-19T07:56:28;14.70;90.90
1411;DHT22;700;51.906;8.404;2023-04-19T08:01:29;15.30;90.40
1411;DHT22;700;51.906;8.404;2023-04-19T08:06:29;15.80;87.30
1411;DHT22;700;51.906;8.404;2023-04-19T08:11:33;16.80;83.50
1411;DHT22;700;51.906;8.404;2023-04-19T08:16:36;17.40;80.30
1411;DHT22;700;51.906;8.404;2023-04-19T08:21:36;18.10;76.20
1411;DHT22;700;51.906;8.404;2023-04-19T08:26:39;19.20;71.90
1411;DHT22;700;51.906;8.404;2023-04-19T08:31:43;19.80;65.40
1411;DHT22;700;51.906;8.404;2023-04-19T08:36:45;20.30;60.60
1411;DHT22;700;51.906;8.404;2023-04-19T08:41:49;22.50;56.00
1411;DHT22;700;51.906;8.404;2023-04-19T08:46:52;24.70;48.20
1411;DHT22;700;51.906;8.404;2023-04-19T08:51:54;26.30;43.10
1411;DHT22;700;51.906;8.404;2023-04-19T08:57:00;26.10;39.40
1411;DHT22;700;51.906;8.404;2023-04-19T09:02:02;26.80;38.70
1411;DHT22;700;51.906;8.404;2023-04-19T09:07:05;26.80;37.60
1411;DHT22;700;51.906;8.404;2023-04-19T09:12:15;28.60;36.80
1411;DHT22;700;51.906;8.404;2023-04-19T09:17:17;29.50;31.30
1411;DHT22;700;51.906;8.404;2023-04-19T09:22:17;30.70;29.70
1411;DHT22;700;51.906;8.404;2023-04-19T09:27:35;29.70;29.30
1411;DHT22;700;51.906;8.404;2023-04-19T09:32:46;30.20;28.70
1411;DHT22;700;51.906;8.404;2023-04-19T09:37:59;33.60;25.70
1411;DHT22;700;51.906;8.404;2023-04-19T09:43:01;34.80;26.00
1411;DHT22;700;51.906;8.404;2023-04-19T09:48:05;39.60;21.90
1411;DHT22;700;51.906;8.404;2023-04-19T09:53:09;40.50;19.40
1411;DHT22;700;51.906;8.404;2023-04-19T09:58:10;43.70;18.80
1411;DHT22;700;51.906;8.404;2023-04-19T10:03:14;45.40;15.80
1411;DHT22;700;51.906;8.404;2023-04-19T10:08:18;44.00;15.90
1411;DHT22;700;51.906;8.404;2023-04-19T10:13:19;46.50;15.60
1411;DHT22;700;51.906;8.404;2023-04-19T10:18:25;46.60;13.90
1411;DHT22;700;51.906;8.404;2023-04-19T10:23:27;47.30;15.40
1411;DHT22;700;51.906;8.404;2023-04-19T10:28:28;47.20;14.30
1411;DHT22;700;51.906;8.404;2023-04-19T10:33:36;46.10;14.10
1411;DHT22;700;51.906;8.404;2023-04-19T10:48:59;47.00;11.40
1411;DHT22;700;51.906;8.404;2023-04-19T10:54:03;46.70;12.00
1411;DHT22;700;51.906;8.404;2023-04-19T11:09:36;45.20;10.20
1411;DHT22;700;51.906;8.404;2023-04-19T11:14:43;42.10;11.00
1411;DHT22;700;51.906;8.404;2023-04-19T11:19:51;45.90;11.30
1411;DHT22;700;51.906;8.404;2023-04-19T11:24:52;45.50;10.70
1411;DHT22;700;51.906;8.404;2023-04-19T11:30:02;43.50;12.50
1411;DHT22;700;51.906;8.404;2023-04-19T11:35:07;44.30;11.50
1411;DHT22;700;51.906;8.404;2023-04-19T11:40:08;45.90;11.10
1411;DHT22;700;51.906;8.404;2023-04-19T11:45:24;44.60;11.20
1411;DHT22;700;51.906;8.404;2023-04-19T11:50:34;44.70;10.80
1411;DHT22;700;51.906;8.404;2023-04-19T11:55:35;45.60;11.60
1411;DHT22;700;51.906;8.404;2023-04-19T12:00:36;45.70;10.90
1411;DHT22;700;51.906;8.404;2023-04-19T12:05:37;45.50;11.50
1411;DHT22;700;51.906;8.404;2023-04-19T12:10:37;44.90;11.40
1411;DHT22;700;51.906;8.404;2023-04-19T12:15:41;45.70;11.70
1411;DHT22;700;51.906;8.404;2023-04-19T12:20:46;45.00;12.40
1411;DHT22;700;51.906;8.404;2023-04-19T12:25:48;43.50;11.30
1411;DHT22;700;51.906;8.404;2023-04-19T12:30:49;44.90;12.50
1411;DHT22;700;51.906;8.404;2023-04-19T12:35:49;44.30;12.60
1411;DHT22;700;51.906;8.404;2023-04-19T12:40:53;43.90;11.80
1411;DHT22;700;51.906;8.404;2023-04-19T12:45:53;45.60;12.50
1411;DHT22;700;51.906;8.404;2023-04-19T12:50:54;44.30;11.20
1411;DHT22;700;51.906;8.404;2023-04-19T12:55:57;45.90;12.20
1411;DHT22;700;51.906;8.404;2023-04-19T13:00:57;46.10;11.80
1411;DHT22;700;51.906;8.404;2023-04-19T13:05:58;45.70;12.20
1411;DHT22;700;51.906;8.404;2023-04-19T13:11:01;45.20;12.30
1411;DHT22;700;51.906;8.404;2023-04-19T13:16:02;43.00;11.50
1411;DHT22;700;51.906;8.404;2023-04-19T13:21:03;43.00;12.50
1411;DHT22;700;51.906;8.404;2023-04-19T13:26:06;41.30;13.40
1411;DHT22;700;51.906;8.404;2023-04-19T13:31:07;39.90;13.70
1411;DHT22;700;51.906;8.404;2023-04-19T13:36:12;39.20;13.20
1411;DHT22;700;51.906;8.404;2023-04-19T13:41:13;35.20;15.00
1411;DHT22;700;51.906;8.404;2023-04-19T13:46:16;34.70;16.90
1411;DHT22;700;51.906;8.404;2023-04-19T13:51:16;35.30;15.70
1411;DHT22;700;51.906;8.404;2023-04-19T13:56:19;33.60;18.40
1411;DHT22;700;51.906;8.404;2023-04-19T14:01:20;36.00;17.70
1411;DHT22;700;51.906;8.404;2023-04-19T14:06:21;33.90;17.00
1411;DHT22;700;51.906;8.404;2023-04-19T14:11:24;32.00;18.90
1411;DHT22;700;51.906;8.404;2023-04-19T14:16:25;29.00;18.60
1411;DHT22;700;51.906;8.404;2023-04-19T14:21:26;28.30;20.70
1411;DHT22;700;51.906;8.404;2023-04-19T14:26:27;28.70;20.60
1411;DHT22;700;51.906;8.404;2023-04-19T14:31:30;28.20;19.60
1411;DHT22;700;51.906;8.404;2023-04-19T14:36:31;27.50;21.40
1411;DHT22;700;51.906;8.404;2023-04-19T14:41:36;26.60;21.90
1411;DHT22;700;51.906;8.404;2023-04-19T14:46:37;24.90;21.80
1411;DHT22;700;51.906;8.404;2023-04-19T14:51:37;23.60;21.80
1411;DHT22;700;51.906;8.404;2023-04-19T14:56:38;23.50;23.80
1411;DHT22;700;51.906;8.404;2023-04-19T15:01:39;23.50;23.80
1411;DHT22;700;51.906;8.404;2023-04-19T15:06:41;22.80;23.70
1411;DHT22;700;51.906;8.404;2023-04-19T15:11:43;23.00;23.90
1411;DHT22;700;51.906;8.404;2023-04-19T15:16:44;22.60;24.30
1411;DHT22;700;51.906;8.404;2023-04-19T15:21:45;22.20;25.20
1411;DHT22;700;51.906;8.404;2023-04-19T15:26:48;21.20;25.30
1411;DHT22;700;51.906;8.404;2023-04-19T15:31:51;21.10;26.50
1411;DHT22;700;51.906;8.404;2023-04-19T15:36:54;20.60;26.40
1411;DHT22;700;51.906;8.404;2023-04-19T15:41:54;19.90;26.90
1411;DHT22;700;51.906;8.404;2023-04-19T15:46:56;19.60;28.00
1411;DHT22;700;51.906;8.404;2023-04-19T15:51:59;19.50;28.10
1411;DHT22;700;51.906;8.404;2023-04-19T15:56:59;19.20;28.70
1411;DHT22;700;51.906;8.404;2023-04-19T16:02:01;19.40;28.80
1411;DHT22;700;51.906;8.404;2023-04-19T16:07:04;19.40;28.90
1411;DHT22;700;51.906;8.404;2023-04-19T16:12:05;18.90;28.90
1411;DHT22;700;51.906;8.404;2023-04-19T16:17:08;18.60;28.70
1411;DHT22;700;51.906;8.404;2023-04-19T16:22:08;18.50;29.50
1411;DHT22;700;51.906;8.404;2023-04-19T16:27:09;18.40;30.20
1411;DHT22;700;51.906;8.404;2023-04-19T16:32:10;18.30;30.60
1411;DHT22;700;51.906;8.404;2023-04-19T16:37:12;18.10;31.40
1411;DHT22;700;51.906;8.404;2023-04-19T16:42:17;17.90;30.70
1411;DHT22;700;51.906;8.404;2023-04-19T16:47:20;17.90;32.50
1411;DHT22;700;51.906;8.404;2023-04-19T16:52:24;17.80;31.80
1411;DHT22;700;51.906;8.404;2023-04-19T16:57:25;17.50;32.30
1411;DHT22;700;51.906;8.404;2023-04-19T17:02:28;17.30;33.90
1411;DHT22;700;51.906;8.404;2023-04-19T17:07:29;17.00;32.70
1411;DHT22;700;51.906;8.404;2023-04-19T17:12:29;16.70;33.30
1411;DHT22;700;51.906;8.404;2023-04-19T17:17:30;16.30;33.00
1411;DHT22;700;51.906;8.404;2023-04-19T17:22:31;16.50;34.00
1411;DHT22;700;51.906;8.404;2023-04-19T17:27:31;16.80;34.50
1411;DHT22;700;51.906;8.404;2023-04-19T17:32:32;16.80;33.80
1411;DHT22;700;51.906;8.404;2023-04-19T17:37:33;16.70;34.00
1411;DHT22;700;51.906;8.404;2023-04-19T17:42:33;16.70;34.10
1411;DHT22;700;51.906;8.404;2023-04-19T17:47:37;16.50;34.50
1411;DHT22;700;51.906;8.404;2023-04-19T17:52:38;16.40;35.90
1411;DHT22;700;51.906;8.404;2023-04-19T17:57:41;15.90;36.00
1411;DHT22;700;51.906;8.404;2023-04-19T18:02:44;15.80;37.40
1411;DHT22;700;51.906;8.404;2023-04-19T18:07:45;15.60;36.90
1411;DHT22;700;51.906;8.404;2023-04-19T18:12:45;15.40;37.20
1411;DHT22;700;51.906;8.404;2023-04-19T18:17:46;15.30;37.90
1411;DHT22;700;51.906;8.404;2023-04-19T18:22:50;15.10;38.20
1411;DHT22;700;51.906;8.404;2023-04-19T18:27:53;14.90;38.20
1411;DHT22;700;51.906;8.404;2023-04-19T18:32:53;14.70;39.40
1411;DHT22;700;51.906;8.404;2023-04-19T18:37:56;14.40;39.00
1411;DHT22;700;51.906;8.404;2023-04-19T18:43:00;14.50;39.30
1411;DHT22;700;51.906;8.404;2023-04-19T18:48:02;14.00;38.70
1411;DHT22;700;51.906;8.404;2023-04-19T18:53:03;14.20;40.00
1411;DHT22;700;51.906;8.404;2023-04-19T18:58:04;14.00;39.70
1411;DHT22;700;51.906;8.404;2023-04-19T19:03:06;13.80;39.60
1411;DHT22;700;51.906;8.404;2023-04-19T19:08:07;13.90;39.90
1411;DHT22;700;51.906;8.404;2023-04-19T19:13:07;13.80;39.60
1411;DHT22;700;51.906;8.404;2023-04-19T19:18:11;13.70;39.80
1411;DHT22;700;51.906;8.404;2023-04-19T19:23:14;13.80;40.40
1411;DHT22;700;51.906;8.404;2023-04-19T19:28:14;13.60;40.20
1411;DHT22;700;51.906;8.404;2023-04-19T19:33:16;13.80;40.80
1411;DHT22;700;51.906;8.404;2023-04-19T19:38:21;13.70;41.50
1411;DHT22;700;51.906;8.404;2023-04-19T19:43:22;13.70;41.00
1411;DHT22;700;51.906;8.404;2023-04-19T19:48:22;13.60;41.50
1411;DHT22;700;51.906;8.404;2023-04-19T19:53:23;13.70;41.20
1411;DHT22;700;51.906;8.404;2023-04-19T19:58:25;13.60;41.10
1411;DHT22;700;51.906;8.404;2023-04-19T20:03:26;13.60;42.00
1411;DHT22;700;51.906;8.404;2023-04-19T20:08:29;13.70;42.30
1411;DHT22;700;51.906;8.404;2023-04-19T20:13:30;13.70;42.40
1411;DHT22;700;51.906;8.404;2023-04-19T20:18:30;13.50;42.60
1411;DHT22;700;51.906;8.404;2023-04-19T20:23:31;13.50;42.40
1411;DHT22;700;51.906;8.404;2023-04-19T20:28:32;13.40;42.60
1411;DHT22;700;51.906;8.404;2023-04-19T20:33:34;13.20;42.90
1411;DHT22;700;51.906;8.404;2023-04-19T20:38:34;13.30;42.80
1411;DHT22;700;51.906;8.404;2023-04-19T20:43:38;13.00;42.50
1411;DHT22;700;51.906;8.404;2023-04-19T20:48:41;13.00;42.20
1411;DHT22;700;51.906;8.404;2023-04-19T20:53:41;13.00;42.10
1411;DHT22;700;51.906;8.404;2023-04-19T20:58:44;13.00;42.10
1411;DHT22;700;51.906;8.404;2023-04-19T21:03:48;12.80;42.00
1411;DHT22;700;51.906;8.404;2023-04-19T21:08:51;12.80;42.50
1411;DHT22;700;51.906;8.404;2023-04-19T21:13:51;12.60;42.20
1411;DHT22;700;51.906;8.404;2023-04-19T21:18:54;12.60;42.00
1411;DHT22;700;51.906;8.404;2023-04-19T21:23:55;12.40;42.30
1411;DHT22;700;51.906;8.404;2023-04-19T21:28:56;12.30;42.40
1411;DHT22;700;51.906;8.404;2023-04-19T21:33:58;12.40;42.80
1411;DHT22;700;51.906;8.404;2023-04-19T21:38:59;12.40;43.80
1411;DHT22;700;51.906;8.404;2023-04-19T21:44:00;12.30;45.80
1411;DHT22;700;51.906;8.404;2023-04-19T21:49:00;12.20;46.90
1411;DHT22;700;51.906;8.404;2023-04-19T21:54:01;12.10;48.00
1411;DHT22;700;51.906;8.404;2023-04-19T21:59:04;12.20;49.00
1411;DHT22;700;51.906;8.404;2023-04-19T22:04:07;12.20;48.90
1411;DHT22;700;51.906;8.404;2023-04-19T22:09:14;12.40;48.70
1411;DHT22;700;51.906;8.404;2023-04-19T22:14:17;12.40;48.70
1411;DHT22;700;51.906;8.404;2023-04-19T22:19:18;12.50;51.00
1411;DHT22;700;51.906;8.404;2023-04-19T22:24:18;12.60;51.70
1411;DHT22;700;51.906;8.404;2023-04-19T22:29:21;12.50;52.70
1411;DHT22;700;51.906;8.404;2023-04-19T22:34:24;12.50;53.20
1411;DHT22;700;51.906;8.404;2023-04-19T22:39:24;12.50;52.70
1411;DHT22;700;51.906;8.404;2023-04-19T22:44:25;12.40;53.20
1411;DHT22;700;51.906;8.404;2023-04-19T22:49:28;12.50;53.20
1411;DHT22;700;51.906;8.404;2023-04-19T22:54:34;12.40;53.40
1411;DHT22;700;51.906;8.404;2023-04-19T22:59:35;12.60;53.10
1411;DHT22;700;51.906;8.404;2023-04-19T23:04:38;12.60;52.80
1411;DHT22;700;51.906;8.404;2023-04-19T23:09:41;12.70;52.90
1411;DHT22;700;51.906;8.404;2023-04-19T23:14:41;12.60;53.30
1411;DHT22;700;51.906;8.404;2023-04-19T23:19:45;12.70;52.40
1411;DHT22;700;51.906;8.404;2023-04-19T23:24:45;12.40;51.20
1411;DHT22;700;51.906;8.404;2023-04-19T23:29:48;12.30;49.70
1411;DHT22;700;51.906;8.404;2023-04-19T23:34:51;12.40;49.60
1411;DHT22;700;51.906;8.404;2023-04-19T23:39:52;12.30;49.40
1411;DHT22;700;51.906;8.404;2023-04-19T23:44:55;12.40;49.10
1411;DHT22;700;51.906;8.404;2023-04-19T23:49:58;12.30;49.50
1411;DHT22;700;51.906;8.404;2023-04-19T23:55:01;12.30;51.00
